Aérodrome :
LOGIN :

S'inscrire | Disclaimer

   EN    FR    IT 

 










Légende :    VFR   VFR Marginal   IFR   IFR Intensif   IFR Très Intensif
Visi : 
Plafond : 
>= 8 km
>= 3000ft
5 à 8 km
1000 à 3000 ft
1500m à 5 km
500 à 1000 ft
800 à 1500m
200 à 500 ft
< 800m
< 200 ft
Symboles :   Orages  Brouillard  Fortes neiges  Fortes précipitations  Vent > 20 kt
SIGMETs :   Divers  Orages  Givrage  Turbulence  Onde Orograph.  Cendres Volcan.







- Altitude de l'aérodrome : 203 ft
- Code IATA : XMJ
- Voir les cartes d'approche


LFBM - Mont-De-Marsan

DERNIER METAR :
  • 251130Z AUTO 25008KT 210V280 9999 FEW022/// SCT029/// ///CB 22/16 Q1020 TEMPO 28015G25KT 4000 SHRA BKN008 BKN015 BKN030TCU

METARs EXPIRÉS :
  • 251100Z AUTO 25006KT 200V290 9999 SCT021/// BKN036/// BKN052/// ///CB 21/16 Q1021 TEMPO 28015G25KT 3000 TSRA BKN008 BKN015 BKN030TCU
  • 251030Z AUTO 25008KT 220V280 9999 FEW014/// SCT024/// BKN066/// ///CB 21/16 Q1021 TEMPO 28015G25KT 3000 TSRA BKN008 BKN015 BKN030TCU
  • 251000Z AUTO 24005KT 200V270 9999 SCT012 BKN066 BKN076 19/16 Q1021 TEMPO 28015G25KT 3000 TSRA BKN020CB
  • 250930Z AUTO 25005KT 210V280 5000 BR NSC 18/16 Q1021 TEMPO 28015G25KT TSRA BKN020CB
  • 250900Z AUTO 25006KT 210V280 6000 NSC 18/16 Q1021 TEMPO 28015G25KT 3000 TSRA BKN020CB

TAF TAF LFBM
Valide du 25 à 09h jusqu'au 26 à 09h UTC


250800Z 2509/2609 24005KT CAVOK
TEMPO 2509/2515 28015G25KT 4000 SHRA BKN008 BKN015 BKN030TCU
PROB30
TEMPO 2510/2513 3000 TSRA BKN020CB
BECMG 2522/2601 BKN014
Pas de NOTAMs connus pour ce terrain.
2 SIGMETs publiés pour la FIR Bordeaux (LFBB) :
 
Orages noyés dans la masse
LFBB SIGMET 7 VALID 251130/251300 LFPW
LFBB BORDEAUX FIR/UIR EMBD TS OBS WI N4245 E00230 - N4215 E00230 - N4230 E00130 - N4300 E00145 TOP FL340 MOV E 15KT NC=
Orages noyés dans la masse
LFBB SIGMET 6 VALID 251030/251130 LFPW
LFBB BORDEAUX FIR/UIR EMBD TS OBS WI N4230 E00130 - N4230 E00045 - N4345 E00145 - N4330 E00230 TOP FL340 MOV NE 20KT NC=



MET'MAP, la Météo Aéronautique d'un coup d'oeil ! - Copyright ORBIFLY Décembre 2007 - Disclaimer

ORBIFLY MET'MAP TEAM :

Programmation & Développement : Alexandra Zaïnal
Conception & Développement : Baudouin d'Aumeries
Co-Programmation & Développement : Marc-Olivier Méhu
Soutien technique & logistique : Manuel Goepfert

Contact : metmap@orbifly.com




SOURCES & CREDITS :

   NOAA